Hagewood, Louisiana
Current Conditions -  °F | °C
As of 8:15 AM on Monday 22 Dec 2014 (Local Time) from KIER Reporting Station
Haze Haze  
Wind Chill: 52°   Ceiling: 300
Heat Index: 52°   Visibility: 3mi
Dew Point: 52°   Wind: 7mph
Humidity: 99%   Direction: 140°SE
Pressure: 29.78"   Gusts: NA
Location:  31.7831°N, 93.1496°W
Report Text: KIER 221415Z AUTO 14006KT 3SM BR OVC003 11/11 A2978 RMK AO2 T01130111
Loading
Personal Weather Stations






























Interactive Weather Map New forecast layout! Learn more

10-Day Weather Forecast

Advertisements
Track Severe Weather on mobile